Time;durP1;ratioP1;P1;durP2;ratioP2;P2;SDS_P1;SDS_P2;PMS_P1;PMS_P2;Temp;Humidity;BMP_temperature;BMP_pressure;BME280_temperature;BME280_humidity;BME280_pressure;Samples;Min_cycle;Max_cycle;Signal;HPM_P1;HPM_P2
2021/12/19 00:09:00;;;;;;;15.85;10.98;;;7.20;63.80;;;;;;5099210;28;20031;-46
2021/12/19 00:11:27;;;;;;;16.98;10.50;;;7.20;63.80;;;;;;5098566;28;20034;-46
2021/12/19 00:13:53;;;;;;;16.73;10.50;;;7.20;63.80;;;;;;5098409;28;20028;-47
2021/12/19 00:16:20;;;;;;;16.10;10.45;;;7.20;63.80;;;;;;5098511;28;20073;-45
2021/12/19 00:18:47;;;;;;;16.70;10.23;;;7.20;64.20;;;;;;5098336;28;20052;-45
2021/12/19 00:21:17;;;;;;;17.17;10.98;;;7.20;64.70;;;;;;5098459;28;20070;-49
2021/12/19 00:23:45;;;;;;;17.90;10.38;;;7.20;64.80;;;;;;5098419;28;20065;-48
2021/12/19 00:26:12;;;;;;;17.70;10.32;;;7.10;64.80;;;;;;5098632;28;20101;-46
2021/12/19 00:28:39;;;;;;;17.25;10.45;;;7.20;64.70;;;;;;5098362;28;20016;-46
2021/12/19 00:31:06;;;;;;;19.17;11.77;;;7.10;64.80;;;;;;5098300;28;20095;-46
2021/12/19 00:33:32;;;;;;;18.58;10.82;;;7.10;65.30;;;;;;5098747;28;20035;-45
2021/12/19 00:35:58;;;;;;;16.90;11.02;;;7.10;64.60;;;;;;5098066;28;20383;-46
2021/12/19 00:38:24;;;;;;;16.27;9.98;;;7.10;64.70;;;;;;5098106;28;20028;-45
2021/12/19 00:40:50;;;;;;;17.83;10.80;;;7.10;64.50;;;;;;5098295;28;20540;-53
2021/12/19 00:46:13;;;;;;;18.13;9.98;;;7.10;64.60;;;;;;5084601;28;20044;-46
2021/12/19 00:48:42;;;;;;;17.38;10.75;;;7.10;64.80;;;;;;5097916;28;20024;-46
2021/12/19 00:51:10;;;;;;;15.70;10.80;;;7.10;64.80;;;;;;5098409;28;20024;-46
2021/12/19 00:53:36;;;;;;;17.58;10.48;;;7.10;65.00;;;;;;5096804;28;20028;-46
2021/12/19 00:56:02;;;;;;;17.90;9.88;;;7.10;64.70;;;;;;5098150;28;20494;-45
2021/12/19 00:58:28;;;;;;;18.10;11.20;;;7.10;64.90;;;;;;5098049;28;20027;-45
2021/12/19 01:00:54;;;;;;;14.88;9.63;;;7.10;63.90;;;;;;5097588;28;20032;-46
2021/12/19 01:03:21;;;;;;;20.08;11.40;;;7.10;64.80;;;;;;5097726;28;20099;-46
2021/12/19 01:05:48;;;;;;;17.00;10.35;;;7.10;64.80;;;;;;5097977;28;20442;-61
2021/12/19 01:08:14;;;;;;;17.23;10.18;;;7.10;65.60;;;;;;5097808;28;20023;-48
2021/12/19 01:10:43;;;;;;;18.27;10.48;;;7.10;65.70;;;;;;5097855;28;20032;-48
2021/12/19 01:13:09;;;;;;;18.70;11.25;;;7.10;65.10;;;;;;5097956;28;20020;-46
2021/12/19 01:15:35;;;;;;;17.67;9.55;;;7.10;65.40;;;;;;5097836;28;20028;-46
2021/12/19 01:18:02;;;;;;;18.23;10.07;;;7.10;64.90;;;;;;5097201;28;20056;-46
2021/12/19 01:20:30;;;;;;;19.65;10.65;;;7.10;65.50;;;;;;5097580;28;20169;-46
2021/12/19 01:22:56;;;;;;;17.85;10.32;;;7.10;64.20;;;;;;5097486;28;20020;-47
2021/12/19 01:25:22;;;;;;;17.35;10.15;;;7.10;63.90;;;;;;5097649;28;20030;-48
2021/12/19 01:27:48;;;;;;;18.23;10.60;;;7.10;64.80;;;;;;5097619;28;20039;-46
2021/12/19 01:30:15;;;;;;;16.80;10.13;;;7.00;64.50;;;;;;5097763;28;20097;-46
2021/12/19 01:32:42;;;;;;;17.77;10.25;;;7.00;65.50;;;;;;5098107;28;20028;-45
2021/12/19 01:35:10;;;;;;;18.27;10.25;;;7.00;65.20;;;;;;5097953;28;20028;-46
2021/12/19 01:37:36;;;;;;;14.90;9.18;;;7.00;65.30;;;;;;5097931;28;20034;-49
2021/12/19 01:40:04;;;;;;;16.35;10.23;;;7.00;65.10;;;;;;5097631;28;20025;-46
2021/12/19 01:42:38;;;;;;;18.15;10.25;;;7.00;65.10;;;;;;5097806;28;20050;-45
2021/12/19 01:45:07;;;;;;;17.23;10.10;;;6.90;64.50;;;;;;5097895;28;20020;-46
2021/12/19 01:47:33;;;;;;;17.27;10.85;;;6.90;65.40;;;;;;5097966;28;20111;-45
2021/12/19 01:49:59;;;;;;;15.85;10.23;;;6.90;63.80;;;;;;5097408;28;20504;-46
2021/12/19 01:52:28;;;;;;;16.02;10.57;;;6.90;64.90;;;;;;5097540;28;20027;-47
2021/12/19 01:54:56;;;;;;;17.75;11.25;;;6.90;64.90;;;;;;5097628;28;20060;-45
2021/12/19 01:57:24;;;;;;;19.60;10.43;;;6.80;65.60;;;;;;5097770;28;20383;-46
2021/12/19 01:59:54;;;;;;;15.90;9.73;;;6.80;65.10;;;;;;5097279;28;20084;-44
2021/12/19 02:02:21;;;;;;;15.68;10.15;;;6.80;65.00;;;;;;5097704;28;20032;-46
2021/12/19 02:04:47;;;;;;;17.70;10.70;;;6.80;65.60;;;;;;5097630;28;20529;-46
2021/12/19 02:07:14;;;;;;;16.58;9.70;;;6.80;65.50;;;;;;5097861;28;20025;-46
2021/12/19 02:09:44;;;;;;;15.00;9.93;;;6.70;63.90;;;;;;5097476;28;20025;-46
2021/12/19 02:12:10;;;;;;;15.65;9.32;;;6.70;64.60;;;;;;5099549;28;20017;-46
2021/12/19 02:14:36;;;;;;;16.88;10.15;;;6.70;64.90;;;;;;5101211;28;20506;-44
2021/12/19 02:17:03;;;;;;;17.23;10.70;;;6.70;65.90;;;;;;5101257;28;20502;-47
2021/12/19 02:19:31;;;;;;;18.25;10.90;;;6.70;66.00;;;;;;5100897;28;20040;-45
2021/12/19 02:21:57;;;;;;;18.73;11.30;;;6.70;65.00;;;;;;5100981;28;20020;-46
2021/12/19 02:24:23;;;;;;;18.80;11.25;;;6.70;65.40;;;;;;5101582;28;20032;-45
2021/12/19 02:26:48;;;;;;;18.30;10.05;;;6.70;66.10;;;;;;5101286;28;20031;-45
2021/12/19 02:29:14;;;;;;;16.77;10.70;;;6.60;65.30;;;;;;5100967;28;20468;-47
2021/12/19 02:31:40;;;;;;;16.42;10.50;;;6.60;66.30;;;;;;5100945;28;20024;-46
2021/12/19 02:34:14;;;;;;;17.15;10.48;;;6.60;65.50;;;;;;5100790;28;20024;-46
2021/12/19 02:50:11;;;;;;;18.98;10.73;;;6.60;66.60;;;;;;5100782;28;20035;-46
2021/12/19 02:52:37;;;;;;;18.48;11.00;;;6.60;65.30;;;;;;5100489;28;20024;-45
2021/12/19 02:55:05;;;;;;;18.45;10.68;;;6.60;66.20;;;;;;5100551;28;20051;-45
2021/12/19 02:57:31;;;;;;;18.45;11.15;;;6.60;65.40;;;;;;5100428;28;20478;-46
2021/12/19 02:59:57;;;;;;;18.00;11.07;;;6.50;65.70;;;;;;5100467;28;20050;-46
2021/12/19 03:02:22;;;;;;;17.25;10.52;;;6.60;65.70;;;;;;5100283;28;20169;-46
2021/12/19 03:04:56;;;;;;;18.13;10.07;;;6.50;65.50;;;;;;5100090;28;20056;-45
2021/12/19 03:07:24;;;;;;;17.90;11.17;;;6.50;65.80;;;;;;5100726;28;20023;-45
2021/12/19 03:10:38;;;;;;;20.80;10.82;;;6.50;66.20;;;;;;5100262;28;20077;-56
2021/12/19 03:18:10;;;;;;;19.77;11.82;;;6.50;66.40;;;;;;5100045;28;20081;-46
2021/12/19 03:20:37;;;;;;;20.80;12.27;;;6.50;65.00;;;;;;5100185;28;20032;-45
2021/12/19 03:23:04;;;;;;;20.45;11.60;;;6.50;65.10;;;;;;5099332;28;20036;-46
2021/12/19 03:25:32;;;;;;;18.70;10.45;;;6.50;65.40;;;;;;5100286;28;20023;-46
2021/12/19 03:27:59;;;;;;;18.20;10.38;;;6.50;66.30;;;;;;5099998;28;20020;-46
2021/12/19 03:30:26;;;;;;;18.73;10.20;;;6.50;65.50;;;;;;5099994;28;20489;-49
2021/12/19 03:32:52;;;;;;;19.67;10.15;;;6.50;65.40;;;;;;5099996;28;20028;-46
2021/12/19 03:35:18;;;;;;;16.73;10.20;;;6.50;66.70;;;;;;5099680;28;20394;-45
2021/12/19 03:37:44;;;;;;;17.05;9.90;;;6.50;66.10;;;;;;5099790;28;20027;-46
2021/12/19 03:40:13;;;;;;;16.98;10.38;;;6.50;65.60;;;;;;5099767;28;20028;-47
2021/12/19 03:42:46;;;;;;;22.67;11.98;;;6.50;66.20;;;;;;5099551;28;20035;-46
2021/12/19 03:45:19;;;;;;;18.58;10.23;;;6.50;65.30;;;;;;5099910;28;20016;-45
2021/12/19 03:47:46;;;;;;;16.95;10.20;;;6.50;65.40;;;;;;5099581;28;20042;-46
2021/12/19 03:50:21;;;;;;;19.90;10.55;;;6.50;65.00;;;;;;5099391;28;20021;-50
2021/12/19 03:52:47;;;;;;;17.25;9.50;;;6.40;66.20;;;;;;5099577;28;20028;-46
2021/12/19 03:55:13;;;;;;;15.55;9.68;;;6.50;66.60;;;;;;5099326;28;20150;-47
2021/12/19 03:57:39;;;;;;;18.23;10.50;;;6.40;65.80;;;;;;5099324;28;20106;-55
2021/12/19 04:00:08;;;;;;;18.40;10.75;;;6.40;66.60;;;;;;5099572;28;20024;-46
2021/12/19 04:02:34;;;;;;;19.15;11.15;;;6.40;66.20;;;;;;5099025;28;20032;-56
2021/12/19 04:05:00;;;;;;;21.52;11.07;;;6.40;65.60;;;;;;5099019;28;20020;-53
2021/12/19 04:07:28;;;;;;;21.83;10.95;;;6.40;65.70;;;;;;5099040;28;20034;-45
2021/12/19 04:09:54;;;;;;;19.27;10.15;;;6.40;66.60;;;;;;5099240;28;20016;-46
2021/12/19 04:12:27;;;;;;;20.10;11.73;;;6.40;66.90;;;;;;5099127;28;20028;-46
2021/12/19 04:14:53;;;;;;;20.67;10.60;;;6.40;66.50;;;;;;5098732;28;20076;-45
2021/12/19 04:17:19;;;;;;;20.15;10.98;;;6.40;65.60;;;;;;5099076;28;20511;-46
2021/12/19 04:19:45;;;;;;;18.02;10.40;;;6.30;66.40;;;;;;5098658;28;20091;-46
2021/12/19 04:22:10;;;;;;;18.23;10.30;;;6.30;66.50;;;;;;5098895;28;20024;-46
2021/12/19 04:24:36;;;;;;;19.40;10.75;;;6.30;66.10;;;;;;5098785;28;20066;-46
2021/12/19 04:27:03;;;;;;;19.77;11.05;;;6.30;66.30;;;;;;5098702;28;20034;-55
2021/12/19 04:29:29;;;;;;;19.10;10.70;;;6.30;67.10;;;;;;5098936;28;20016;-46
2021/12/19 04:31:55;;;;;;;21.30;11.65;;;6.30;66.20;;;;;;5098933;28;20081;-45
2021/12/19 04:34:23;;;;;;;18.85;10.70;;;6.30;65.30;;;;;;5098173;28;20024;-46
2021/12/19 04:36:55;;;;;;;18.02;9.80;;;6.30;66.00;;;;;;5098744;28;20110;-44
2021/12/19 04:39:30;;;;;;;21.55;11.13;;;6.30;66.20;;;;;;5098245;28;20035;-45
2021/12/19 05:14:47;;;;;;;21.47;12.60;;;6.10;66.50;;;;;;5055633;28;20060;-46
2021/12/19 05:17:19;;;;;;;21.80;11.85;;;6.10;66.40;;;;;;5082471;28;20258;-46
2021/12/19 05:20:03;;;;;;;21.77;11.25;;;6.10;66.30;;;;;;5097631;28;20098;-46
2021/12/19 05:22:32;;;;;;;19.88;11.25;;;6.10;67.60;;;;;;5098186;28;20032;-45
2021/12/19 05:25:12;;;;;;;23.42;12.63;;;6.10;67.50;;;;;;5098081;28;20020;-45
2021/12/19 05:27:50;;;;;;;21.38;12.88;;;6.10;67.40;;;;;;5097907;28;20024;-45
2021/12/19 05:30:16;;;;;;;21.48;13.07;;;6.10;66.30;;;;;;5097579;28;20058;-46
2021/12/19 05:32:44;;;;;;;21.58;12.15;;;6.10;66.80;;;;;;5098008;28;20430;-46
2021/12/19 05:35:12;;;;;;;20.55;11.98;;;6.00;66.30;;;;;;5098204;28;20161;-45
2021/12/19 05:45:52;;;;;;;22.55;12.25;;;6.00;66.60;;;;;;5099536;28;20536;-50
2021/12/19 05:48:18;;;;;;;20.58;11.73;;;6.00;65.90;;;;;;5101997;28;20024;-46
2021/12/19 05:50:44;;;;;;;22.88;12.43;;;6.00;66.20;;;;;;5101721;28;20021;-45
2021/12/19 05:53:11;;;;;;;22.88;13.20;;;6.00;66.20;;;;;;5101494;28;20031;-46
2021/12/19 05:55:37;;;;;;;23.80;12.80;;;6.00;67.50;;;;;;5101645;28;20098;-45
2021/12/19 05:58:03;;;;;;;25.45;13.93;;;6.00;66.30;;;;;;5101791;28;20063;-46
2021/12/19 06:00:29;;;;;;;21.45;11.55;;;6.00;67.00;;;;;;5101308;28;20077;-45
2021/12/19 06:02:56;;;;;;;22.52;13.00;;;5.90;67.20;;;;;;5101461;28;20036;-45
2021/12/19 06:05:22;;;;;;;21.70;12.82;;;5.90;67.60;;;;;;5101462;28;20020;-45
2021/12/19 06:07:48;;;;;;;24.13;12.68;;;6.00;66.60;;;;;;5101334;28;20490;-45
2021/12/19 06:10:13;;;;;;;22.25;13.57;;;5.90;67.90;;;;;;5101254;28;20023;-46
2021/12/19 06:12:39;;;;;;;25.65;13.50;;;5.90;68.00;;;;;;5101805;28;20106;-46
2021/12/19 06:15:09;;;;;;;20.65;12.23;;;5.90;68.40;;;;;;5101218;28;20028;-46
2021/12/19 06:17:38;;;;;;;21.52;13.13;;;5.90;67.90;;;;;;5101208;28;20032;-44
2021/12/19 06:20:05;;;;;;;24.02;13.10;;;5.90;68.00;;;;;;5100802;28;20050;-46
2021/12/19 06:22:30;;;;;;;21.15;12.60;;;5.90;67.50;;;;;;5101006;28;20028;-47
2021/12/19 06:24:56;;;;;;;25.30;13.90;;;5.90;68.10;;;;;;5101250;28;20027;-46
2021/12/19 06:27:22;;;;;;;21.45;12.40;;;5.90;67.50;;;;;;5101207;28;20032;-45
2021/12/19 06:29:49;;;;;;;20.85;11.93;;;5.90;68.00;;;;;;5101003;28;20013;-45
2021/12/19 06:32:16;;;;;;;24.58;12.75;;;5.90;68.30;;;;;;5101022;28;20082;-46
2021/12/19 06:34:42;;;;;;;22.85;12.15;;;5.90;68.10;;;;;;5100923;28;20027;-48
2021/12/19 06:37:10;;;;;;;23.40;13.00;;;5.90;67.80;;;;;;5100911;28;20103;-45
2021/12/19 06:39:37;;;;;;;23.58;12.73;;;5.90;67.70;;;;;;5101029;28;20047;-44
2021/12/19 06:42:04;;;;;;;23.88;13.48;;;5.80;67.70;;;;;;5101220;28;20028;-46
2021/12/19 06:44:30;;;;;;;22.92;12.45;;;5.80;67.50;;;;;;5100900;28;20109;-46
2021/12/19 06:46:56;;;;;;;21.88;11.50;;;5.80;67.90;;;;;;5100712;28;20494;-46
2021/12/19 06:49:22;;;;;;;22.02;11.80;;;5.80;68.40;;;;;;5101051;28;20024;-46
2021/12/19 06:51:48;;;;;;;21.70;12.10;;;5.80;67.60;;;;;;5100969;28;20031;-46
2021/12/19 06:54:14;;;;;;;24.80;13.10;;;5.70;68.60;;;;;;5100691;28;20479;-45
2021/12/19 06:56:40;;;;;;;24.27;13.57;;;5.70;68.00;;;;;;5100642;28;20016;-45
2021/12/19 06:59:06;;;;;;;23.38;12.65;;;5.70;68.20;;;;;;5100275;28;20028;-45
2021/12/19 07:01:32;;;;;;;23.45;12.25;;;5.70;68.10;;;;;;5100512;28;20024;-46
2021/12/19 07:03:58;;;;;;;23.05;13.80;;;5.70;67.90;;;;;;5100360;28;20540;-54
2021/12/19 07:06:24;;;;;;;23.15;13.90;;;5.70;67.60;;;;;;5100482;28;20024;-45
2021/12/19 07:08:50;;;;;;;27.08;12.73;;;5.70;68.70;;;;;;5098997;28;20020;-55
2021/12/19 07:11:16;;;;;;;23.73;13.20;;;5.70;67.90;;;;;;5100155;28;20149;-45
2021/12/19 07:13:42;;;;;;;21.50;11.80;;;5.70;68.20;;;;;;5100584;28;20056;-46
2021/12/19 07:16:07;;;;;;;25.10;13.50;;;5.70;68.00;;;;;;5100082;28;20031;-45
2021/12/19 07:18:36;;;;;;;23.20;12.98;;;5.70;68.50;;;;;;5100024;28;20079;-46
2021/12/19 07:21:03;;;;;;;28.42;14.63;;;5.60;68.40;;;;;;5100250;28;20506;-47
2021/12/19 07:23:30;;;;;;;27.58;13.95;;;5.60;68.00;;;;;;5100147;28;20023;-49
2021/12/19 07:25:56;;;;;;;23.52;13.52;;;5.60;68.70;;;;;;5099896;28;20016;-45
2021/12/19 07:28:22;;;;;;;25.48;14.27;;;5.60;68.30;;;;;;5100352;28;20104;-49
2021/12/19 07:30:48;;;;;;;26.33;13.45;;;5.60;69.20;;;;;;5100176;28;20019;-44
2021/12/19 07:33:14;;;;;;;26.25;13.20;;;5.60;68.70;;;;;;5099953;28;20024;-46
2021/12/19 07:35:44;;;;;;;26.08;14.35;;;5.60;68.50;;;;;;5100125;28;20100;-45
2021/12/19 07:38:15;;;;;;;24.73;13.63;;;5.60;68.50;;;;;;5099506;28;20032;-45
2021/12/19 07:40:46;;;;;;;26.13;12.73;;;5.60;67.30;;;;;;5099685;28;20425;-46
2021/12/19 07:43:13;;;;;;;26.52;14.13;;;5.60;68.20;;;;;;5099264;28;20107;-45
2021/12/19 07:45:39;;;;;;;28.02;14.55;;;5.60;68.60;;;;;;5099596;28;20020;-44
2021/12/19 07:48:05;;;;;;;24.38;13.85;;;5.60;67.10;;;;;;5099470;28;20021;-45
2021/12/19 07:50:32;;;;;;;24.77;12.50;;;5.60;67.70;;;;;;5099496;28;20027;-45
2021/12/19 07:52:58;;;;;;;28.08;13.35;;;5.50;68.70;;;;;;5099603;28;20040;-45
2021/12/19 07:55:25;;;;;;;26.92;14.57;;;5.50;68.50;;;;;;5099534;28;20027;-44
2021/12/19 07:57:51;;;;;;;28.05;14.73;;;5.50;68.50;;;;;;5099286;28;20052;-46
2021/12/19 08:00:19;;;;;;;23.48;13.57;;;5.50;69.00;;;;;;5099469;28;20028;-46
2021/12/19 08:02:46;;;;;;;26.90;14.13;;;5.50;68.50;;;;;;5098958;28;20028;-47
2021/12/19 08:05:13;;;;;;;29.67;14.57;;;5.50;68.30;;;;;;5099398;28;20021;-46
2021/12/19 08:07:40;;;;;;;32.28;16.02;;;5.50;68.80;;;;;;5099110;28;20418;-46
2021/12/19 08:12:33;;;;;;;26.52;14.90;;;5.60;68.70;;;;;;5098996;28;20550;-50
2021/12/19 08:14:59;;;;;;;28.30;15.13;;;5.60;67.40;;;;;;5099286;28;20049;-46
2021/12/19 08:17:26;;;;;;;26.30;14.02;;;5.60;67.70;;;;;;5098876;28;20043;-49
2021/12/19 08:19:52;;;;;;;29.08;14.38;;;5.60;68.70;;;;;;5098693;28;20044;-47
2021/12/19 08:22:19;;;;;;;27.77;14.80;;;5.60;69.30;;;;;;5098712;28;20020;-49
2021/12/19 08:24:46;;;;;;;30.95;17.13;;;5.60;69.30;;;;;;5098887;28;20095;-48
2021/12/19 08:27:12;;;;;;;25.38;14.93;;;5.60;68.30;;;;;;5097447;28;20032;-45
2021/12/19 08:29:38;;;;;;;29.17;14.82;;;5.70;68.90;;;;;;5096814;28;20081;-46
2021/12/19 08:32:04;;;;;;;31.10;14.82;;;5.70;68.70;;;;;;5097669;28;20021;-46
2021/12/19 08:34:30;;;;;;;29.50;16.08;;;5.70;68.80;;;;;;5098970;28;20023;-48
2021/12/19 08:36:56;;;;;;;30.83;16.17;;;5.70;68.80;;;;;;5098525;28;20020;-46
2021/12/19 08:39:22;;;;;;;28.05;13.95;;;5.80;68.90;;;;;;5098683;28;20024;-44
2021/12/19 08:41:48;;;;;;;29.95;16.50;;;5.90;68.70;;;;;;5098513;28;20084;-45
2021/12/19 08:44:14;;;;;;;31.40;15.10;;;6.00;69.30;;;;;;5097762;28;20042;-46
2021/12/19 08:46:41;;;;;;;29.08;15.68;;;6.10;68.90;;;;;;5096491;28;20028;-45
2021/12/19 08:49:08;;;;;;;33.92;16.30;;;6.30;69.00;;;;;;5096713;28;20027;-51
2021/12/19 08:51:35;;;;;;;26.20;13.98;;;6.60;68.50;;;;;;5097176;28;20024;-46
2021/12/19 08:54:02;;;;;;;32.33;15.52;;;6.80;67.50;;;;;;5097614;28;20045;-51
2021/12/19 08:56:29;;;;;;;29.80;15.60;;;7.00;67.90;;;;;;5097634;28;20391;-47
2021/12/19 08:58:55;;;;;;;28.52;15.23;;;7.30;67.30;;;;;;5097650;28;20365;-52
2021/12/19 09:01:21;;;;;;;28.95;14.02;;;7.50;67.00;;;;;;5098318;28;20031;-46
2021/12/19 09:03:47;;;;;;;29.58;15.52;;;7.60;66.80;;;;;;5097988;28;20028;-47
2021/12/19 09:06:14;;;;;;;30.08;16.15;;;7.90;66.30;;;;;;5098527;28;20027;-46
2021/12/19 09:08:40;;;;;;;28.67;14.70;;;8.10;66.10;;;;;;5098029;28;20103;-47
2021/12/19 09:11:06;;;;;;;27.10;14.95;;;8.20;66.10;;;;;;5098243;28;20020;-46
2021/12/19 09:13:33;;;;;;;27.85;14.75;;;8.50;66.00;;;;;;5098144;28;20044;-44
2021/12/19 09:16:00;;;;;;;27.40;15.10;;;8.70;65.40;;;;;;5098011;28;20031;-46
2021/12/19 09:18:26;;;;;;;27.27;14.98;;;8.80;65.10;;;;;;5097688;28;20445;-45
2021/12/19 09:20:52;;;;;;;28.77;15.57;;;9.00;65.10;;;;;;5097406;28;20053;-48
2021/12/19 09:23:18;;;;;;;25.88;14.93;;;9.30;64.80;;;;;;5097856;28;20479;-46
2021/12/19 09:25:44;;;;;;;27.08;15.70;;;9.60;64.50;;;;;;5097965;28;20016;-46
2021/12/19 09:28:10;;;;;;;25.98;15.68;;;10.00;64.10;;;;;;5097791;28;20069;-47
2021/12/19 09:30:36;;;;;;;30.48;15.13;;;10.20;63.60;;;;;;5097768;28;20463;-45
2021/12/19 09:33:02;;;;;;;26.73;15.35;;;10.30;62.80;;;;;;5097696;28;20032;-46
2021/12/19 09:35:29;;;;;;;29.40;15.90;;;10.30;62.90;;;;;;5098163;28;20024;-48
2021/12/19 09:37:55;;;;;;;26.35;14.68;;;10.40;62.70;;;;;;5097720;28;20024;-46
2021/12/19 09:40:32;;;;;;;28.80;14.98;;;10.50;62.70;;;;;;5098152;28;20037;-47
2021/12/19 09:43:01;;;;;;;26.00;14.43;;;10.30;62.10;;;;;;5097770;28;20031;-48
2021/12/19 09:45:28;;;;;;;28.02;15.50;;;10.20;62.00;;;;;;5097811;28;20016;-47
2021/12/19 09:47:54;;;;;;;24.42;14.73;;;9.90;62.10;;;;;;5097807;28;20032;-46
2021/12/19 09:50:21;;;;;;;26.75;13.80;;;9.70;62.20;;;;;;5097847;28;20024;-46
2021/12/19 09:52:49;;;;;;;26.52;14.40;;;9.60;62.50;;;;;;5097559;28;20020;-46
2021/12/19 09:55:21;;;;;;;25.98;14.93;;;9.50;62.60;;;;;;5097413;28;20031;-45
2021/12/19 09:57:48;;;;;;;26.63;16.13;;;9.60;62.70;;;;;;5097328;28;20028;-44
2021/12/19 10:00:15;;;;;;;27.13;14.48;;;9.80;62.40;;;;;;5097700;28;20035;-46
2021/12/19 10:02:41;;;;;;;24.88;13.85;;;9.80;62.50;;;;;;5097895;28;20043;-46
2021/12/19 10:05:33;;;;;;;25.98;14.07;;;9.80;62.50;;;;;;5097478;28;20024;-47
2021/12/19 10:08:02;;;;;;;27.33;14.25;;;9.90;62.50;;;;;;5093640;28;20043;-47
2021/12/19 10:10:58;;;;;;;24.20;13.90;;;10.00;62.00;;;;;;5097623;28;20047;-46
2021/12/19 10:13:37;;;;;;;26.58;14.25;;;10.00;62.00;;;;;;5096208;28;20039;-53
2021/12/19 10:16:27;;;;;;;25.52;14.02;;;10.30;61.80;;;;;;5097618;28;20035;-46
2021/12/19 10:18:57;;;;;;;25.02;13.80;;;11.00;62.00;;;;;;5097187;28;20052;-45
2021/12/19 10:21:23;;;;;;;27.25;13.95;;;11.80;61.20;;;;;;5097528;28;20560;-45
2021/12/19 10:23:49;;;;;;;24.60;14.23;;;12.50;60.90;;;;;;5097409;28;20020;-46
2021/12/19 10:26:15;;;;;;;23.95;13.35;;;13.20;58.60;;;;;;5097407;28;20020;-50
2021/12/19 10:29:01;;;;;;;22.92;14.05;;;13.90;57.50;;;;;;5097438;28;20044;-47
2021/12/19 10:31:29;;;;;;;22.65;14.32;;;14.80;60.00;;;;;;5096999;28;20403;-51
2021/12/19 10:33:55;;;;;;;22.17;14.50;;;15.50;56.00;;;;;;5099762;28;20101;-46
2021/12/19 10:36:21;;;;;;;26.65;15.73;;;16.20;53.30;;;;;;5100853;28;20028;-50
2021/12/19 10:38:50;;;;;;;25.02;14.73;;;16.70;52.90;;;;;;5100802;28;20034;-51
2021/12/19 10:41:33;;;;;;;21.27;13.70;;;17.40;50.20;;;;;;5100007;28;20031;-52
2021/12/19 10:44:07;;;;;;;23.63;14.63;;;18.00;49.40;;;;;;5100269;28;20471;-52
2021/12/19 10:46:41;;;;;;;22.17;14.65;;;18.50;47.50;;;;;;5100013;28;20028;-54
2021/12/19 10:49:30;;;;;;;20.80;14.48;;;18.80;45.90;;;;;;5100159;28;20020;-52
2021/12/19 10:52:01;;;;;;;23.98;15.48;;;19.00;43.50;;;;;;5100578;28;20028;-49
2021/12/19 10:54:27;;;;;;;22.15;14.25;;;19.30;44.70;;;;;;5100765;28;20051;-49
2021/12/19 10:57:06;;;;;;;21.05;13.82;;;19.50;44.20;;;;;;5099884;28;20028;-51
2021/12/19 10:59:32;;;;;;;21.88;14.35;;;19.60;42.80;;;;;;5100392;28;20023;-50
2021/12/19 11:01:58;;;;;;;20.00;13.82;;;19.80;43.60;;;;;;5100404;28;20028;-50
2021/12/19 11:04:24;;;;;;;19.92;13.88;;;20.00;43.60;;;;;;5100306;28;20025;-60
2021/12/19 11:06:58;;;;;;;18.48;13.40;;;20.40;40.40;;;;;;5100506;28;20032;-49
2021/12/19 11:09:30;;;;;;;19.00;13.43;;;20.80;40.30;;;;;;5098791;28;20479;-50
2021/12/19 11:12:06;;;;;;;20.65;13.60;;;20.80;39.60;;;;;;5100401;28;20032;-51
2021/12/19 11:14:43;;;;;;;19.02;12.45;;;20.90;38.80;;;;;;5098554;28;20020;-51
2021/12/19 11:17:21;;;;;;;18.08;12.43;;;20.90;38.90;;;;;;5100000;28;20031;-52
2021/12/19 11:19:56;;;;;;;17.75;11.82;;;21.00;38.90;;;;;;5099958;28;20056;-52
2021/12/19 11:22:26;;;;;;;17.85;12.18;;;21.10;38.50;;;;;;5100375;28;20028;-51
2021/12/19 11:25:04;;;;;;;18.83;11.98;;;21.30;39.30;;;;;;5100328;28;20537;-52
2021/12/19 11:27:32;;;;;;;17.08;11.50;;;21.40;35.80;;;;;;5100051;28;20016;-50
2021/12/19 11:29:59;;;;;;;18.02;11.57;;;21.70;37.30;;;;;;5099802;28;20024;-49
2021/12/19 11:32:46;;;;;;;16.52;10.80;;;21.90;35.90;;;;;;5100030;28;20053;-52
2021/12/19 11:35:20;;;;;;;16.33;11.07;;;21.90;35.10;;;;;;5100054;28;20116;-50
2021/12/19 11:37:51;;;;;;;15.00;10.43;;;21.80;34.80;;;;;;5098347;28;20020;-50
2021/12/19 11:40:19;;;;;;;15.80;10.13;;;21.70;35.40;;;;;;5099868;28;20031;-47
2021/12/19 11:42:46;;;;;;;16.92;10.80;;;21.90;36.70;;;;;;5099405;28;20039;-49
2021/12/19 11:45:40;;;;;;;14.52;9.93;;;22.10;37.60;;;;;;5099593;28;20021;-50
2021/12/19 11:48:23;;;;;;;15.73;10.55;;;22.20;36.30;;;;;;5099915;28;20016;-47
2021/12/19 11:50:50;;;;;;;14.93;10.65;;;22.30;35.80;;;;;;5099951;28;20022;-48
2021/12/19 11:53:16;;;;;;;15.43;10.60;;;22.30;34.40;;;;;;5099105;28;20032;-47
2021/12/19 11:55:44;;;;;;;14.93;10.45;;;22.40;36.30;;;;;;5099044;28;20379;-51
2021/12/19 11:58:11;;;;;;;16.65;10.90;;;22.50;34.90;;;;;;5099169;28;20024;-48
2021/12/19 12:00:43;;;;;;;15.52;10.13;;;22.50;34.90;;;;;;5099066;28;20024;-52
2021/12/19 12:03:14;;;;;;;15.40;10.57;;;22.70;35.10;;;;;;5098735;28;20065;-52
2021/12/19 12:05:44;;;;;;;13.85;9.60;;;23.10;34.90;;;;;;5098979;28;20513;-51
2021/12/19 12:08:25;;;;;;;15.77;10.45;;;23.40;34.00;;;;;;5098554;28;20032;-54
2021/12/19 12:10:59;;;;;;;14.57;9.80;;;23.20;32.50;;;;;;5098791;28;20379;-54
2021/12/19 12:13:30;;;;;;;14.73;9.95;;;23.30;34.00;;;;;;5098532;28;20035;-54
2021/12/19 12:16:05;;;;;;;14.23;9.30;;;23.70;33.20;;;;;;5098822;28;20024;-51
2021/12/19 12:18:39;;;;;;;14.60;10.30;;;23.70;32.80;;;;;;5098618;28;20044;-52
2021/12/19 12:24:11;;;;;;;13.80;9.30;;;24.20;32.50;;;;;;5086455;28;20054;-51
2021/12/19 12:26:51;;;;;;;14.15;10.07;;;24.30;31.70;;;;;;5098633;28;20020;-50
2021/12/19 12:29:17;;;;;;;14.80;10.18;;;24.60;32.80;;;;;;5098499;28;20081;-52
2021/12/19 12:31:45;;;;;;;14.57;10.30;;;24.70;31.50;;;;;;5098544;28;20024;-53
2021/12/19 12:34:13;;;;;;;15.88;10.93;;;24.80;32.80;;;;;;5098272;28;20028;-54
2021/12/19 12:36:39;;;;;;;15.27;10.38;;;25.00;31.20;;;;;;5098458;28;20031;-58
2021/12/19 12:39:10;;;;;;;13.73;9.15;;;25.00;30.70;;;;;;5098344;28;20024;-53
2021/12/19 12:44:11;;;;;;;13.65;9.55;;;24.50;31.30;;;;;;5098069;28;20027;-53
2021/12/19 12:46:37;;;;;;;14.75;9.20;;;24.00;33.10;;;;;;5098327;28;20165;-51
2021/12/19 12:49:14;;;;;;;13.15;9.02;;;23.70;32.00;;;;;;5098171;28;20505;-51
2021/12/19 12:51:59;;;;;;;13.88;8.90;;;23.80;31.90;;;;;;5098418;28;20020;-54
2021/12/19 12:54:35;;;;;;;13.77;9.43;;;24.00;31.40;;;;;;5098173;28;20030;-52
2021/12/19 12:57:05;;;;;;;14.57;10.23;;;23.90;31.20;;;;;;5097199;28;20042;-53
2021/12/19 12:59:33;;;;;;;14.82;10.45;;;24.00;33.00;;;;;;5097827;28;20032;-50
2021/12/19 13:02:13;;;;;;;15.02;10.45;;;24.00;32.30;;;;;;5097796;28;20047;-51
2021/12/19 13:05:00;;;;;;;13.60;9.52;;;24.10;32.00;;;;;;5097835;28;20055;-51
2021/12/19 13:07:26;;;;;;;13.82;9.63;;;24.10;32.80;;;;;;5097880;28;20111;-48
2021/12/19 13:10:00;;;;;;;13.55;9.80;;;24.00;33.10;;;;;;5098470;28;20398;-49
2021/12/19 13:12:35;;;;;;;13.35;9.27;;;24.10;31.70;;;;;;5097426;28;20046;-52
2021/12/19 13:15:09;;;;;;;13.65;8.85;;;24.10;33.70;;;;;;5097572;28;20077;-55
2021/12/19 13:17:48;;;;;;;12.80;8.60;;;24.50;32.30;;;;;;5097605;28;20538;-50
2021/12/19 13:20:19;;;;;;;13.77;9.30;;;24.60;31.50;;;;;;5097106;28;20055;-52
2021/12/19 13:22:50;;;;;;;13.75;9.27;;;24.50;31.20;;;;;;5097135;28;20036;-53
2021/12/19 13:25:19;;;;;;;12.65;8.90;;;24.60;31.80;;;;;;5097550;28;20020;-54
2021/12/19 13:27:47;;;;;;;13.02;9.20;;;24.60;31.50;;;;;;5096084;28;20039;-51
2021/12/19 13:30:29;;;;;;;11.88;8.45;;;25.10;32.40;;;;;;5097241;28;20017;-53
2021/12/19 13:33:09;;;;;;;13.13;8.80;;;25.30;31.20;;;;;;5097625;28;20448;-52
2021/12/19 13:35:37;;;;;;;12.85;8.52;;;25.20;31.10;;;;;;5097517;28;20426;-50
2021/12/19 13:38:05;;;;;;;12.30;8.73;;;25.20;31.60;;;;;;5097190;28;20055;-50
2021/12/19 13:40:34;;;;;;;11.90;8.00;;;25.00;31.10;;;;;;5097395;28;20025;-51
2021/12/19 13:43:06;;;;;;;12.50;8.68;;;24.70;30.60;;;;;;5096093;28;20024;-49
2021/12/19 13:45:36;;;;;;;13.13;8.75;;;24.30;30.70;;;;;;5097585;28;20521;-51
2021/12/19 13:48:06;;;;;;;12.50;8.75;;;24.50;32.00;;;;;;5097359;28;20380;-51
2021/12/19 13:50:36;;;;;;;12.25;8.00;;;24.40;31.10;;;;;;5097410;28;20029;-52
2021/12/19 13:53:02;;;;;;;12.95;8.98;;;24.30;31.20;;;;;;5096709;28;20436;-48
2021/12/19 13:55:51;;;;;;;11.70;7.80;;;24.20;31.40;;;;;;5097193;28;20024;-51
2021/12/19 13:58:18;;;;;;;12.15;8.00;;;24.00;31.30;;;;;;5097019;28;20034;-51
2021/12/19 14:00:49;;;;;;;12.25;8.07;;;23.90;31.80;;;;;;5096931;28;20563;-49
2021/12/19 14:03:15;;;;;;;12.25;7.47;;;23.90;31.60;;;;;;5096713;28;20024;-51